Terminal Aerodrome Forecast
Issued by NWS

Home | Current Version | Previous Version | Text Only | Print | Product List | Glossary On
Versions: 1 2 3 4 5 6 7 8 9 10 11 12 13 14 15 16 17
000
FTUS45 KABQ 032342
TAFSAF
TAF
KSAF 032342Z 0400/0424 VRB06KT P6SM SCT060 BKN150
      TEMPO 0401/0404 12011G22KT
     FM041100 01007KT P6SM SCT150
     FM041800 25007KT P6SM FEW070
     FM042200 26009KT P6SM VCTS SCT070CB SCT150=

USA.gov is the U.S. government's official web portal to all federal, state and local government web resources and services.